الصفحة الرئيسية
METAR-TAF:

METAR-TAF

مطار :

Phrae, تايلاند

دائرة عرض: 18-10N, خط طول: 100-10E, ارتفاع: 161 متر

مراقبة الطقس الحالي

تاريخ ووقت الإصدار 7ساعات و 42 دقيقة قبل الساعة 11:00UTC
رياح هادئة
درجة الحرارة 28°درجة مئوية
الرطوبة 89%
ضغط 1010 hPa
الرؤية 10 كم أو أكثر
الغيوم لا تقل 1500 م ولا وجود لمزنة ركامية السحاب الأسود

METAR: VTCP 211100Z 00000KT CAVOK 28/26 Q1010 NOSIG

زمن: 01:42 (18:42 UTC)

توقعات

تاريخ ووقت الإصدار 1ساعة و 42 دقيقة قبل الساعة 17:00UTC
التوقعات صالحة من21 الساعة 18 UTC إلى 22 الساعة 18 UTC
ريح 5 عقدة من الغرب/الجنوب الغربي
الرؤية 10 كم أو أكثر
غيوم قليلة على ارتفاع 2500 قدم
مؤقت
من 22 الساعة 06 UTC إلى 22 الساعة 12 UTC
ريح 15 عقدة من الغرب/الجنوب الغربي تتزايد حتى 25 عقدة
الرؤية: 4000 متر
غيوم قليلة على ارتفاع 2000 قدم, مزنة ركامية.
غيوم مفككة على ارتفاع 3000 قدم
عاصفة رعدية, مطر

TAF: VTCP 211700Z 2118/2218 24005KT 9999 FEW025 TEMPO 2206/2212 24015G25KT 4000 TSRA FEW020CB BKN030

أرصاد الطقس والتوقعات من أكثر من 4000 مطار (تقارير الطقس للمطار METAR والتنبؤ بالطقس بالمطارTAF).

المحطات المتاحة هي النقط الصفراء والحمراء على الخريطة.

حرك المؤشر فوق النقطة لمعرفة اسم المحطة.

ثم انقر لمعرفة أرصاد وتوقعات الطقس.

لتغيير الخارطة: اضغط على الأزرار الخضراء مع رمز الصليب الأسود للتكبير. على الزر الأخضر مع شرطة للتصغير، أو على الأسهم الخضراء للخرائط المجاورة.


METAR-TAF: